sensor_id;sensor_type;location;lat;lon;timestamp;P1;durP1;ratioP1;P2;durP2;ratioP2
5937;SDS011;2994;51.220;4.412;2023-08-24T00:00:14;4.70;;;4.27;;
5937;SDS011;2994;51.220;4.412;2023-08-24T00:02:39;4.97;;;3.87;;
5937;SDS011;2994;51.220;4.412;2023-08-24T00:05:05;6.73;;;3.87;;
5937;SDS011;2994;51.220;4.412;2023-08-24T00:07:30;7.63;;;4.37;;
5937;SDS011;2994;51.220;4.412;2023-08-24T00:09:57;4.70;;;3.83;;
5937;SDS011;2994;51.220;4.412;2023-08-24T00:12:23;8.17;;;4.00;;
5937;SDS011;2994;51.220;4.412;2023-08-24T00:14:50;4.83;;;4.43;;
5937;SDS011;2994;51.220;4.412;2023-08-24T00:17:17;5.30;;;3.80;;
5937;SDS011;2994;51.220;4.412;2023-08-24T00:19:42;3.60;;;3.30;;
5937;SDS011;2994;51.220;4.412;2023-08-24T00:22:07;4.37;;;3.83;;
5937;SDS011;2994;51.220;4.412;2023-08-24T00:24:34;5.23;;;3.33;;
5937;SDS011;2994;51.220;4.412;2023-08-24T00:26:59;6.80;;;4.40;;
5937;SDS011;2994;51.220;4.412;2023-08-24T00:29:25;5.00;;;3.50;;
5937;SDS011;2994;51.220;4.412;2023-08-24T00:31:50;7.93;;;3.90;;
5937;SDS011;2994;51.220;4.412;2023-08-24T00:34:15;4.67;;;3.90;;
5937;SDS011;2994;51.220;4.412;2023-08-24T00:36:41;6.10;;;4.40;;
5937;SDS011;2994;51.220;4.412;2023-08-24T00:39:06;4.47;;;3.83;;
5937;SDS011;2994;51.220;4.412;2023-08-24T00:41:32;5.37;;;4.23;;
5937;SDS011;2994;51.220;4.412;2023-08-24T00:43:57;4.90;;;4.10;;
5937;SDS011;2994;51.220;4.412;2023-08-24T00:46:23;5.53;;;4.50;;
5937;SDS011;2994;51.220;4.412;2023-08-24T00:48:52;4.37;;;3.93;;
5937;SDS011;2994;51.220;4.412;2023-08-24T00:51:22;5.90;;;4.93;;
5937;SDS011;2994;51.220;4.412;2023-08-24T00:53:48;9.60;;;5.10;;
5937;SDS011;2994;51.220;4.412;2023-08-24T00:56:13;4.87;;;4.37;;
5937;SDS011;2994;51.220;4.412;2023-08-24T00:58:39;5.13;;;4.40;;
5937;SDS011;2994;51.220;4.412;2023-08-24T01:01:05;6.93;;;4.80;;
5937;SDS011;2994;51.220;4.412;2023-08-24T01:03:30;4.80;;;4.37;;
5937;SDS011;2994;51.220;4.412;2023-08-24T01:05:56;7.00;;;4.90;;
5937;SDS011;2994;51.220;4.412;2023-08-24T01:08:21;5.23;;;4.47;;
5937;SDS011;2994;51.220;4.412;2023-08-24T01:13:50;6.50;;;4.90;;
5937;SDS011;2994;51.220;4.412;2023-08-24T01:16:34;8.30;;;4.90;;
5937;SDS011;2994;51.220;4.412;2023-08-24T01:19:05;5.50;;;5.00;;
5937;SDS011;2994;51.220;4.412;2023-08-24T01:21:35;5.40;;;4.90;;
5937;SDS011;2994;51.220;4.412;2023-08-24T01:26:34;6.43;;;5.50;;
5937;SDS011;2994;51.220;4.412;2023-08-24T01:29:00;6.33;;;5.73;;
5937;SDS011;2994;51.220;4.412;2023-08-24T01:31:27;5.60;;;5.10;;
5937;SDS011;2994;51.220;4.412;2023-08-24T01:33:53;5.90;;;5.30;;
5937;SDS011;2994;51.220;4.412;2023-08-24T01:36:18;5.47;;;4.97;;
5937;SDS011;2994;51.220;4.412;2023-08-24T01:38:45;6.20;;;5.13;;
5937;SDS011;2994;51.220;4.412;2023-08-24T01:43:51;5.50;;;4.73;;
5937;SDS011;2994;51.220;4.412;2023-08-24T01:46:19;6.67;;;5.70;;
5937;SDS011;2994;51.220;4.412;2023-08-24T01:48:46;7.23;;;5.20;;
5937;SDS011;2994;51.220;4.412;2023-08-24T01:51:12;6.10;;;4.67;;
5937;SDS011;2994;51.220;4.412;2023-08-24T01:53:39;7.13;;;5.20;;
5937;SDS011;2994;51.220;4.412;2023-08-24T01:56:12;5.50;;;5.00;;
5937;SDS011;2994;51.220;4.412;2023-08-24T01:58:40;5.73;;;5.13;;
5937;SDS011;2994;51.220;4.412;2023-08-24T02:01:05;6.50;;;5.53;;
5937;SDS011;2994;51.220;4.412;2023-08-24T02:03:32;7.07;;;4.83;;
5937;SDS011;2994;51.220;4.412;2023-08-24T02:05:58;6.90;;;6.10;;
5937;SDS011;2994;51.220;4.412;2023-08-24T02:08:23;6.10;;;5.50;;
5937;SDS011;2994;51.220;4.412;2023-08-24T02:10:49;7.97;;;5.87;;
5937;SDS011;2994;51.220;4.412;2023-08-24T02:13:14;11.17;;;6.80;;
5937;SDS011;2994;51.220;4.412;2023-08-24T02:15:40;7.30;;;6.50;;
5937;SDS011;2994;51.220;4.412;2023-08-24T02:18:06;7.37;;;6.60;;
5937;SDS011;2994;51.220;4.412;2023-08-24T02:20:35;7.77;;;6.83;;
5937;SDS011;2994;51.220;4.412;2023-08-24T02:23:01;7.97;;;6.87;;
5937;SDS011;2994;51.220;4.412;2023-08-24T02:25:26;6.83;;;6.27;;
5937;SDS011;2994;51.220;4.412;2023-08-24T02:27:52;8.53;;;7.60;;
5937;SDS011;2994;51.220;4.412;2023-08-24T02:30:18;7.93;;;6.90;;
5937;SDS011;2994;51.220;4.412;2023-08-24T02:32:43;8.00;;;6.80;;
5937;SDS011;2994;51.220;4.412;2023-08-24T02:35:08;9.37;;;8.20;;
5937;SDS011;2994;51.220;4.412;2023-08-24T02:37:34;7.40;;;6.40;;
5937;SDS011;2994;51.220;4.412;2023-08-24T02:39:59;9.97;;;8.10;;
5937;SDS011;2994;51.220;4.412;2023-08-24T02:42:25;8.60;;;7.80;;
5937;SDS011;2994;51.220;4.412;2023-08-24T02:44:50;8.90;;;6.90;;
5937;SDS011;2994;51.220;4.412;2023-08-24T02:47:16;8.23;;;7.53;;
5937;SDS011;2994;51.220;4.412;2023-08-24T02:49:41;8.00;;;7.23;;
5937;SDS011;2994;51.220;4.412;2023-08-24T02:52:07;8.23;;;7.43;;
5937;SDS011;2994;51.220;4.412;2023-08-24T02:54:33;7.60;;;6.90;;
5937;SDS011;2994;51.220;4.412;2023-08-24T02:56:59;8.00;;;6.70;;
5937;SDS011;2994;51.220;4.412;2023-08-24T02:59:24;9.30;;;7.53;;
5937;SDS011;2994;51.220;4.412;2023-08-24T03:01:51;9.03;;;7.30;;
5937;SDS011;2994;51.220;4.412;2023-08-24T03:04:16;8.10;;;7.37;;
5937;SDS011;2994;51.220;4.412;2023-08-24T03:06:43;8.63;;;7.47;;
5937;SDS011;2994;51.220;4.412;2023-08-24T03:09:09;11.30;;;8.43;;
5937;SDS011;2994;51.220;4.412;2023-08-24T03:11:34;9.70;;;7.20;;
5937;SDS011;2994;51.220;4.412;2023-08-24T03:14:00;8.03;;;7.23;;
5937;SDS011;2994;51.220;4.412;2023-08-24T03:16:26;9.03;;;7.47;;
5937;SDS011;2994;51.220;4.412;2023-08-24T03:18:51;8.93;;;7.17;;
5937;SDS011;2994;51.220;4.412;2023-08-24T03:21:17;8.70;;;7.90;;
5937;SDS011;2994;51.220;4.412;2023-08-24T03:23:42;7.40;;;6.70;;
5937;SDS011;2994;51.220;4.412;2023-08-24T03:26:08;8.63;;;7.63;;
5937;SDS011;2994;51.220;4.412;2023-08-24T03:28:33;8.87;;;7.57;;
5937;SDS011;2994;51.220;4.412;2023-08-24T03:31:00;11.50;;;7.80;;
5937;SDS011;2994;51.220;4.412;2023-08-24T03:33:26;8.70;;;7.90;;
5937;SDS011;2994;51.220;4.412;2023-08-24T03:35:52;9.57;;;7.70;;
5937;SDS011;2994;51.220;4.412;2023-08-24T03:38:18;8.93;;;8.03;;
5937;SDS011;2994;51.220;4.412;2023-08-24T03:40:44;9.50;;;8.40;;
5937;SDS011;2994;51.220;4.412;2023-08-24T03:43:09;9.53;;;8.60;;
5937;SDS011;2994;51.220;4.412;2023-08-24T03:45:34;9.70;;;8.80;;
5937;SDS011;2994;51.220;4.412;2023-08-24T03:48:00;12.00;;;10.23;;
5937;SDS011;2994;51.220;4.412;2023-08-24T03:50:25;10.73;;;9.63;;
5937;SDS011;2994;51.220;4.412;2023-08-24T03:52:51;9.43;;;8.53;;
5937;SDS011;2994;51.220;4.412;2023-08-24T03:55:17;11.50;;;9.63;;
5937;SDS011;2994;51.220;4.412;2023-08-24T03:57:42;8.80;;;7.90;;
5937;SDS011;2994;51.220;4.412;2023-08-24T04:00:08;9.03;;;8.23;;
5937;SDS011;2994;51.220;4.412;2023-08-24T04:02:40;9.40;;;8.50;;
5937;SDS011;2994;51.220;4.412;2023-08-24T04:05:06;8.63;;;7.83;;
5937;SDS011;2994;51.220;4.412;2023-08-24T04:07:33;8.67;;;7.87;;
5937;SDS011;2994;51.220;4.412;2023-08-24T04:10:01;8.07;;;7.27;;
5937;SDS011;2994;51.220;4.412;2023-08-24T04:12:29;9.47;;;8.57;;
5937;SDS011;2994;51.220;4.412;2023-08-24T04:14:55;8.87;;;8.07;;
5937;SDS011;2994;51.220;4.412;2023-08-24T04:17:22;9.73;;;8.73;;
5937;SDS011;2994;51.220;4.412;2023-08-24T04:19:48;9.37;;;8.53;;
5937;SDS011;2994;51.220;4.412;2023-08-24T04:22:13;8.90;;;8.00;;
5937;SDS011;2994;51.220;4.412;2023-08-24T04:24:39;10.33;;;9.33;;
5937;SDS011;2994;51.220;4.412;2023-08-24T04:27:04;9.40;;;8.20;;
5937;SDS011;2994;51.220;4.412;2023-08-24T04:29:33;11.23;;;8.60;;
5937;SDS011;2994;51.220;4.412;2023-08-24T04:31:58;11.63;;;9.20;;
5937;SDS011;2994;51.220;4.412;2023-08-24T04:34:24;8.63;;;7.63;;
5937;SDS011;2994;51.220;4.412;2023-08-24T04:36:49;8.47;;;7.53;;
5937;SDS011;2994;51.220;4.412;2023-08-24T04:39:15;8.70;;;7.80;;
5937;SDS011;2994;51.220;4.412;2023-08-24T04:41:40;8.57;;;7.70;;
5937;SDS011;2994;51.220;4.412;2023-08-24T04:44:06;7.63;;;6.93;;
5937;SDS011;2994;51.220;4.412;2023-08-24T04:46:33;10.80;;;8.03;;
5937;SDS011;2994;51.220;4.412;2023-08-24T04:48:58;8.30;;;7.47;;
5937;SDS011;2994;51.220;4.412;2023-08-24T04:51:24;10.63;;;8.30;;
5937;SDS011;2994;51.220;4.412;2023-08-24T04:53:49;8.50;;;7.33;;
5937;SDS011;2994;51.220;4.412;2023-08-24T04:56:15;8.97;;;7.80;;
5937;SDS011;2994;51.220;4.412;2023-08-24T04:58:51;9.00;;;8.10;;
5937;SDS011;2994;51.220;4.412;2023-08-24T05:01:17;8.33;;;7.07;;
5937;SDS011;2994;51.220;4.412;2023-08-24T05:03:43;9.97;;;8.17;;
5937;SDS011;2994;51.220;4.412;2023-08-24T05:06:08;7.93;;;7.23;;
5937;SDS011;2994;51.220;4.412;2023-08-24T05:08:33;8.43;;;7.03;;
5937;SDS011;2994;51.220;4.412;2023-08-24T05:10:59;9.17;;;7.70;;
5937;SDS011;2994;51.220;4.412;2023-08-24T05:13:24;9.10;;;7.43;;
5937;SDS011;2994;51.220;4.412;2023-08-24T05:15:50;7.77;;;6.93;;
5937;SDS011;2994;51.220;4.412;2023-08-24T05:18:15;11.10;;;9.40;;
5937;SDS011;2994;51.220;4.412;2023-08-24T05:23:33;10.73;;;9.20;;
5937;SDS011;2994;51.220;4.412;2023-08-24T05:25:59;11.20;;;8.73;;
5937;SDS011;2994;51.220;4.412;2023-08-24T05:28:26;10.93;;;8.67;;
5937;SDS011;2994;51.220;4.412;2023-08-24T05:30:53;9.90;;;8.90;;
5937;SDS011;2994;51.220;4.412;2023-08-24T05:33:19;9.80;;;8.80;;
5937;SDS011;2994;51.220;4.412;2023-08-24T05:35:45;9.30;;;8.20;;
5937;SDS011;2994;51.220;4.412;2023-08-24T05:38:12;10.10;;;9.10;;
5937;SDS011;2994;51.220;4.412;2023-08-24T05:40:37;9.77;;;8.80;;
5937;SDS011;2994;51.220;4.412;2023-08-24T05:43:04;10.47;;;9.37;;
5937;SDS011;2994;51.220;4.412;2023-08-24T05:45:29;10.30;;;8.90;;
5937;SDS011;2994;51.220;4.412;2023-08-24T05:47:55;9.80;;;8.80;;
5937;SDS011;2994;51.220;4.412;2023-08-24T05:50:20;9.50;;;8.70;;
5937;SDS011;2994;51.220;4.412;2023-08-24T05:52:46;8.67;;;7.77;;
5937;SDS011;2994;51.220;4.412;2023-08-24T05:55:11;10.77;;;9.73;;
5937;SDS011;2994;51.220;4.412;2023-08-24T05:57:37;10.30;;;9.30;;
5937;SDS011;2994;51.220;4.412;2023-08-24T06:00:03;10.13;;;8.97;;
5937;SDS011;2994;51.220;4.412;2023-08-24T06:02:34;9.40;;;8.43;;
5937;SDS011;2994;51.220;4.412;2023-08-24T06:05:00;11.17;;;8.20;;
5937;SDS011;2994;51.220;4.412;2023-08-24T06:07:26;8.27;;;7.47;;
5937;SDS011;2994;51.220;4.412;2023-08-24T06:09:51;9.07;;;7.87;;
5937;SDS011;2994;51.220;4.412;2023-08-24T06:12:17;8.80;;;8.10;;
5937;SDS011;2994;51.220;4.412;2023-08-24T06:14:43;10.17;;;9.07;;
5937;SDS011;2994;51.220;4.412;2023-08-24T06:17:08;8.00;;;7.20;;
5937;SDS011;2994;51.220;4.412;2023-08-24T06:19:34;10.30;;;8.63;;
5937;SDS011;2994;51.220;4.412;2023-08-24T06:21:59;10.30;;;8.60;;
5937;SDS011;2994;51.220;4.412;2023-08-24T06:24:24;9.10;;;8.30;;
5937;SDS011;2994;51.220;4.412;2023-08-24T06:26:50;8.13;;;7.30;;
5937;SDS011;2994;51.220;4.412;2023-08-24T06:29:15;9.50;;;8.50;;
5937;SDS011;2994;51.220;4.412;2023-08-24T06:31:41;9.30;;;8.23;;
5937;SDS011;2994;51.220;4.412;2023-08-24T06:34:06;10.13;;;9.10;;
5937;SDS011;2994;51.220;4.412;2023-08-24T06:36:31;9.53;;;8.53;;
5937;SDS011;2994;51.220;4.412;2023-08-24T06:38:57;8.90;;;8.10;;
5937;SDS011;2994;51.220;4.412;2023-08-24T06:41:23;8.90;;;8.03;;
5937;SDS011;2994;51.220;4.412;2023-08-24T06:43:49;9.23;;;8.50;;
5937;SDS011;2994;51.220;4.412;2023-08-24T06:46:15;10.50;;;8.73;;
5937;SDS011;2994;51.220;4.412;2023-08-24T06:48:40;9.33;;;8.47;;
5937;SDS011;2994;51.220;4.412;2023-08-24T06:51:08;8.87;;;8.00;;
5937;SDS011;2994;51.220;4.412;2023-08-24T06:53:34;8.70;;;7.90;;
5937;SDS011;2994;51.220;4.412;2023-08-24T06:56:00;9.63;;;8.70;;
5937;SDS011;2994;51.220;4.412;2023-08-24T06:58:25;9.53;;;8.07;;
5937;SDS011;2994;51.220;4.412;2023-08-24T07:00:51;8.87;;;8.07;;
5937;SDS011;2994;51.220;4.412;2023-08-24T07:03:16;7.93;;;7.13;;
5937;SDS011;2994;51.220;4.412;2023-08-24T07:05:43;8.80;;;7.73;;
5937;SDS011;2994;51.220;4.412;2023-08-24T07:08:08;8.80;;;8.00;;
5937;SDS011;2994;51.220;4.412;2023-08-24T07:10:38;8.87;;;7.53;;
5937;SDS011;2994;51.220;4.412;2023-08-24T07:13:04;9.33;;;7.63;;
5937;SDS011;2994;51.220;4.412;2023-08-24T07:15:32;8.77;;;7.97;;
5937;SDS011;2994;51.220;4.412;2023-08-24T07:18:00;8.17;;;7.23;;
5937;SDS011;2994;51.220;4.412;2023-08-24T07:20:26;8.80;;;8.00;;
5937;SDS011;2994;51.220;4.412;2023-08-24T07:22:51;8.20;;;7.50;;
5937;SDS011;2994;51.220;4.412;2023-08-24T07:25:18;9.90;;;9.00;;
5937;SDS011;2994;51.220;4.412;2023-08-24T07:27:45;9.67;;;8.30;;
5937;SDS011;2994;51.220;4.412;2023-08-24T07:30:11;9.53;;;8.57;;
5937;SDS011;2994;51.220;4.412;2023-08-24T07:32:36;8.30;;;7.50;;
5937;SDS011;2994;51.220;4.412;2023-08-24T07:35:02;8.17;;;7.33;;
5937;SDS011;2994;51.220;4.412;2023-08-24T07:37:28;8.30;;;7.50;;
5937;SDS011;2994;51.220;4.412;2023-08-24T07:39:53;9.70;;;8.20;;
5937;SDS011;2994;51.220;4.412;2023-08-24T07:42:22;10.40;;;7.13;;
5937;SDS011;2994;51.220;4.412;2023-08-24T07:44:48;8.30;;;7.53;;
5937;SDS011;2994;51.220;4.412;2023-08-24T07:47:14;8.17;;;7.40;;
5937;SDS011;2994;51.220;4.412;2023-08-24T07:49:39;8.27;;;7.47;;
5937;SDS011;2994;51.220;4.412;2023-08-24T07:52:09;7.30;;;6.60;;
5937;SDS011;2994;51.220;4.412;2023-08-24T07:54:38;9.13;;;8.40;;
5937;SDS011;2994;51.220;4.412;2023-08-24T07:57:04;6.90;;;6.20;;
5937;SDS011;2994;51.220;4.412;2023-08-24T07:59:30;8.50;;;7.80;;
5937;SDS011;2994;51.220;4.412;2023-08-24T08:01:56;9.90;;;8.10;;
5937;SDS011;2994;51.220;4.412;2023-08-24T08:04:21;9.20;;;7.50;;
5937;SDS011;2994;51.220;4.412;2023-08-24T08:06:47;9.73;;;8.73;;
5937;SDS011;2994;51.220;4.412;2023-08-24T08:09:12;8.70;;;7.47;;
5937;SDS011;2994;51.220;4.412;2023-08-24T08:11:38;10.37;;;7.87;;
5937;SDS011;2994;51.220;4.412;2023-08-24T08:14:03;9.40;;;8.50;;
5937;SDS011;2994;51.220;4.412;2023-08-24T08:16:29;8.87;;;7.97;;
5937;SDS011;2994;51.220;4.412;2023-08-24T08:18:54;8.53;;;7.63;;
5937;SDS011;2994;51.220;4.412;2023-08-24T08:21:19;9.20;;;8.30;;
5937;SDS011;2994;51.220;4.412;2023-08-24T08:23:45;8.00;;;7.20;;
5937;SDS011;2994;51.220;4.412;2023-08-24T08:26:11;8.93;;;8.03;;
5937;SDS011;2994;51.220;4.412;2023-08-24T08:28:36;8.13;;;7.33;;
5937;SDS011;2994;51.220;4.412;2023-08-24T08:31:05;10.80;;;9.77;;
5937;SDS011;2994;51.220;4.412;2023-08-24T08:33:31;7.80;;;7.10;;
5937;SDS011;2994;51.220;4.412;2023-08-24T08:35:57;8.70;;;7.90;;
5937;SDS011;2994;51.220;4.412;2023-08-24T08:38:22;7.40;;;6.80;;
5937;SDS011;2994;51.220;4.412;2023-08-24T08:40:51;8.80;;;6.80;;
5937;SDS011;2994;51.220;4.412;2023-08-24T08:43:21;8.80;;;8.00;;
5937;SDS011;2994;51.220;4.412;2023-08-24T08:45:48;9.27;;;8.47;;
5937;SDS011;2994;51.220;4.412;2023-08-24T08:48:15;7.50;;;6.40;;
5937;SDS011;2994;51.220;4.412;2023-08-24T08:50:40;10.37;;;7.90;;
5937;SDS011;2994;51.220;4.412;2023-08-24T08:53:06;7.33;;;6.73;;
5937;SDS011;2994;51.220;4.412;2023-08-24T08:55:31;8.13;;;7.40;;
5937;SDS011;2994;51.220;4.412;2023-08-24T08:57:58;9.60;;;7.73;;
5937;SDS011;2994;51.220;4.412;2023-08-24T09:02:59;9.90;;;7.47;;
5937;SDS011;2994;51.220;4.412;2023-08-24T09:05:25;8.77;;;7.97;;
5937;SDS011;2994;51.220;4.412;2023-08-24T09:07:52;7.60;;;6.87;;
5937;SDS011;2994;51.220;4.412;2023-08-24T09:10:18;7.83;;;6.97;;
5937;SDS011;2994;51.220;4.412;2023-08-24T09:12:44;7.70;;;6.90;;
5937;SDS011;2994;51.220;4.412;2023-08-24T09:18:09;10.00;;;7.23;;
5937;SDS011;2994;51.220;4.412;2023-08-24T09:20:37;8.90;;;7.63;;
5937;SDS011;2994;51.220;4.412;2023-08-24T09:23:03;7.23;;;6.40;;
5937;SDS011;2994;51.220;4.412;2023-08-24T09:30:42;8.80;;;6.37;;
5937;SDS011;2994;51.220;4.412;2023-08-24T09:33:37;7.83;;;7.03;;
5937;SDS011;2994;51.220;4.412;2023-08-24T09:36:05;8.43;;;7.63;;
5937;SDS011;2994;51.220;4.412;2023-08-24T09:38:31;10.30;;;8.93;;
5937;SDS011;2994;51.220;4.412;2023-08-24T09:40:56;9.53;;;8.63;;
5937;SDS011;2994;51.220;4.412;2023-08-24T09:43:22;8.67;;;7.77;;
5937;SDS011;2994;51.220;4.412;2023-08-24T09:48:18;9.43;;;7.53;;
5937;SDS011;2994;51.220;4.412;2023-08-24T09:50:48;8.73;;;7.93;;
5937;SDS011;2994;51.220;4.412;2023-08-24T09:53:21;10.20;;;8.23;;
5937;SDS011;2994;51.220;4.412;2023-08-24T09:55:55;10.70;;;8.10;;
5937;SDS011;2994;51.220;4.412;2023-08-24T09:58:24;9.70;;;8.80;;
5937;SDS011;2994;51.220;4.412;2023-08-24T10:00:50;12.00;;;10.80;;
5937;SDS011;2994;51.220;4.412;2023-08-24T10:03:18;8.73;;;7.83;;
5937;SDS011;2994;51.220;4.412;2023-08-24T10:05:49;7.53;;;6.93;;
5937;SDS011;2994;51.220;4.412;2023-08-24T10:08:20;8.60;;;7.70;;
5937;SDS011;2994;51.220;4.412;2023-08-24T10:10:48;9.93;;;7.20;;
5937;SDS011;2994;51.220;4.412;2023-08-24T10:13:20;7.60;;;6.73;;
5937;SDS011;2994;51.220;4.412;2023-08-24T10:18:23;8.63;;;7.73;;
5937;SDS011;2994;51.220;4.412;2023-08-24T10:20:51;8.67;;;7.43;;
5937;SDS011;2994;51.220;4.412;2023-08-24T10:25:53;8.80;;;7.90;;
5937;SDS011;2994;51.220;4.412;2023-08-24T10:28:20;10.10;;;9.20;;
5937;SDS011;2994;51.220;4.412;2023-08-24T10:30:51;8.27;;;7.47;;
5937;SDS011;2994;51.220;4.412;2023-08-24T10:33:19;7.67;;;6.97;;
5937;SDS011;2994;51.220;4.412;2023-08-24T10:35:46;7.47;;;6.70;;
5937;SDS011;2994;51.220;4.412;2023-08-24T10:38:25;7.57;;;6.77;;
5937;SDS011;2994;51.220;4.412;2023-08-24T10:40:52;8.47;;;7.57;;
5937;SDS011;2994;51.220;4.412;2023-08-24T10:43:19;9.03;;;8.03;;
5937;SDS011;2994;51.220;4.412;2023-08-24T10:45:57;9.20;;;8.27;;
5937;SDS011;2994;51.220;4.412;2023-08-24T10:48:24;12.97;;;9.20;;
5937;SDS011;2994;51.220;4.412;2023-08-24T10:53:45;10.00;;;9.00;;
5937;SDS011;2994;51.220;4.412;2023-08-24T10:56:13;10.20;;;8.50;;
5937;SDS011;2994;51.220;4.412;2023-08-24T10:58:46;10.17;;;8.97;;
5937;SDS011;2994;51.220;4.412;2023-08-24T11:01:16;9.40;;;8.50;;
5937;SDS011;2994;51.220;4.412;2023-08-24T11:03:49;11.10;;;9.10;;
5937;SDS011;2994;51.220;4.412;2023-08-24T11:06:25;8.57;;;7.70;;
5937;SDS011;2994;51.220;4.412;2023-08-24T11:09:07;11.77;;;8.30;;
5937;SDS011;2994;51.220;4.412;2023-08-24T11:11:39;7.63;;;6.90;;
5937;SDS011;2994;51.220;4.412;2023-08-24T11:14:18;10.73;;;9.73;;
5937;SDS011;2994;51.220;4.412;2023-08-24T11:16:48;9.50;;;8.60;;
5937;SDS011;2994;51.220;4.412;2023-08-24T11:21:51;9.30;;;8.40;;
5937;SDS011;2994;51.220;4.412;2023-08-24T11:24:17;8.83;;;7.60;;
5937;SDS011;2994;51.220;4.412;2023-08-24T11:26:45;8.90;;;8.00;;
5937;SDS011;2994;51.220;4.412;2023-08-24T11:29:20;6.70;;;6.10;;
5937;SDS011;2994;51.220;4.412;2023-08-24T11:31:46;8.77;;;7.83;;
5937;SDS011;2994;51.220;4.412;2023-08-24T11:34:14;7.80;;;7.20;;
5937;SDS011;2994;51.220;4.412;2023-08-24T11:36:41;9.07;;;8.10;;
5937;SDS011;2994;51.220;4.412;2023-08-24T11:39:15;8.70;;;7.23;;
5937;SDS011;2994;51.220;4.412;2023-08-24T11:59:53;7.50;;;5.20;;
5937;SDS011;2994;51.220;4.412;2023-08-24T12:18:18;10.17;;;6.37;;
5937;SDS011;2994;51.220;4.412;2023-08-24T12:20:56;7.27;;;5.30;;
5937;SDS011;2994;51.220;4.412;2023-08-24T12:29:53;15.10;;;6.37;;
5937;SDS011;2994;51.220;4.412;2023-08-24T12:39:56;8.10;;;5.90;;
5937;SDS011;2994;51.220;4.412;2023-08-24T13:11:21;5.27;;;4.77;;
5937;SDS011;2994;51.220;4.412;2023-08-24T13:13:47;4.50;;;4.20;;
5937;SDS011;2994;51.220;4.412;2023-08-24T13:16:14;6.47;;;5.03;;
5937;SDS011;2994;51.220;4.412;2023-08-24T13:21:55;6.63;;;4.87;;
5937;SDS011;2994;51.220;4.412;2023-08-24T13:24:44;5.90;;;5.27;;
5937;SDS011;2994;51.220;4.412;2023-08-24T13:27:27;5.43;;;4.90;;
5937;SDS011;2994;51.220;4.412;2023-08-24T13:35:42;5.40;;;4.20;;
5937;SDS011;2994;51.220;4.412;2023-08-24T13:40:46;4.00;;;3.60;;
5937;SDS011;2994;51.220;4.412;2023-08-24T13:43:15;6.57;;;4.57;;
5937;SDS011;2994;51.220;4.412;2023-08-24T13:48:16;5.53;;;4.50;;
5937;SDS011;2994;51.220;4.412;2023-08-24T13:51:08;6.20;;;3.80;;
5937;SDS011;2994;51.220;4.412;2023-08-24T14:31:05;3.43;;;2.90;;
5937;SDS011;2994;51.220;4.412;2023-08-24T14:41:16;3.83;;;3.53;;
5937;SDS011;2994;51.220;4.412;2023-08-24T14:43:41;4.23;;;3.17;;
5937;SDS011;2994;51.220;4.412;2023-08-24T14:46:07;3.47;;;3.17;;
5937;SDS011;2994;51.220;4.412;2023-08-24T14:48:33;3.73;;;2.80;;
5937;SDS011;2994;51.220;4.412;2023-08-24T14:51:02;3.83;;;3.00;;
5937;SDS011;2994;51.220;4.412;2023-08-24T14:53:28;3.50;;;3.20;;
5937;SDS011;2994;51.220;4.412;2023-08-24T14:55:56;2.97;;;2.50;;
5937;SDS011;2994;51.220;4.412;2023-08-24T14:58:23;3.37;;;2.90;;
5937;SDS011;2994;51.220;4.412;2023-08-24T15:00:50;3.37;;;3.00;;
5937;SDS011;2994;51.220;4.412;2023-08-24T15:03:17;3.40;;;2.90;;
5937;SDS011;2994;51.220;4.412;2023-08-24T15:05:45;3.50;;;2.73;;
5937;SDS011;2994;51.220;4.412;2023-08-24T15:08:13;4.23;;;3.10;;
5937;SDS011;2994;51.220;4.412;2023-08-24T15:10:39;4.10;;;3.10;;
5937;SDS011;2994;51.220;4.412;2023-08-24T15:13:04;6.83;;;3.90;;
5937;SDS011;2994;51.220;4.412;2023-08-24T15:15:30;3.53;;;3.23;;
5937;SDS011;2994;51.220;4.412;2023-08-24T15:17:59;4.73;;;3.00;;
5937;SDS011;2994;51.220;4.412;2023-08-24T15:20:25;4.03;;;2.83;;
5937;SDS011;2994;51.220;4.412;2023-08-24T15:22:50;4.20;;;3.63;;
5937;SDS011;2994;51.220;4.412;2023-08-24T15:25:16;4.37;;;3.70;;
5937;SDS011;2994;51.220;4.412;2023-08-24T15:27:41;3.57;;;3.27;;
5937;SDS011;2994;51.220;4.412;2023-08-24T15:30:07;3.47;;;3.00;;
5937;SDS011;2994;51.220;4.412;2023-08-24T15:32:33;3.80;;;3.50;;
5937;SDS011;2994;51.220;4.412;2023-08-24T15:34:58;3.30;;;2.70;;
5937;SDS011;2994;51.220;4.412;2023-08-24T15:37:24;5.17;;;3.67;;
5937;SDS011;2994;51.220;4.412;2023-08-24T15:39:49;3.60;;;2.80;;
5937;SDS011;2994;51.220;4.412;2023-08-24T15:42:15;5.17;;;3.40;;
5937;SDS011;2994;51.220;4.412;2023-08-24T15:44:41;4.57;;;3.27;;
5937;SDS011;2994;51.220;4.412;2023-08-24T15:47:07;4.03;;;3.00;;
5937;SDS011;2994;51.220;4.412;2023-08-24T15:49:54;4.83;;;3.07;;
5937;SDS011;2994;51.220;4.412;2023-08-24T15:52:20;3.67;;;2.70;;
5937;SDS011;2994;51.220;4.412;2023-08-24T15:54:45;4.40;;;2.93;;
5937;SDS011;2994;51.220;4.412;2023-08-24T15:57:12;4.90;;;2.70;;
5937;SDS011;2994;51.220;4.412;2023-08-24T15:59:39;5.10;;;2.57;;
5937;SDS011;2994;51.220;4.412;2023-08-24T16:02:04;4.07;;;2.90;;
5937;SDS011;2994;51.220;4.412;2023-08-24T16:04:30;5.53;;;3.10;;
5937;SDS011;2994;51.220;4.412;2023-08-24T16:06:55;5.00;;;2.70;;
5937;SDS011;2994;51.220;4.412;2023-08-24T16:09:21;2.63;;;2.30;;
5937;SDS011;2994;51.220;4.412;2023-08-24T16:11:46;3.50;;;2.70;;
5937;SDS011;2994;51.220;4.412;2023-08-24T16:14:12;3.23;;;2.50;;
5937;SDS011;2994;51.220;4.412;2023-08-24T16:16:38;4.57;;;2.73;;
5937;SDS011;2994;51.220;4.412;2023-08-24T16:19:07;5.30;;;2.80;;
5937;SDS011;2994;51.220;4.412;2023-08-24T16:21:33;4.57;;;2.60;;
5937;SDS011;2994;51.220;4.412;2023-08-24T16:23:58;3.97;;;2.83;;
5937;SDS011;2994;51.220;4.412;2023-08-24T16:26:25;5.77;;;2.80;;
5937;SDS011;2994;51.220;4.412;2023-08-24T16:28:54;5.13;;;2.77;;
5937;SDS011;2994;51.220;4.412;2023-08-24T16:31:20;4.20;;;2.70;;
5937;SDS011;2994;51.220;4.412;2023-08-24T16:33:45;3.83;;;2.67;;
5937;SDS011;2994;51.220;4.412;2023-08-24T16:36:11;3.70;;;2.57;;
5937;SDS011;2994;51.220;4.412;2023-08-24T16:38:37;4.23;;;2.60;;
5937;SDS011;2994;51.220;4.412;2023-08-24T16:41:02;5.90;;;3.00;;
5937;SDS011;2994;51.220;4.412;2023-08-24T16:43:28;4.77;;;2.67;;
5937;SDS011;2994;51.220;4.412;2023-08-24T16:45:54;5.30;;;2.57;;
5937;SDS011;2994;51.220;4.412;2023-08-24T16:48:19;4.40;;;2.70;;
5937;SDS011;2994;51.220;4.412;2023-08-24T16:50:45;3.83;;;2.57;;
5937;SDS011;2994;51.220;4.412;2023-08-24T16:53:15;8.53;;;3.60;;
5937;SDS011;2994;51.220;4.412;2023-08-24T16:55:43;4.63;;;3.80;;
5937;SDS011;2994;51.220;4.412;2023-08-24T16:58:08;5.67;;;3.53;;
5937;SDS011;2994;51.220;4.412;2023-08-24T17:00:34;5.23;;;4.10;;
5937;SDS011;2994;51.220;4.412;2023-08-24T17:02:59;6.43;;;5.33;;
5937;SDS011;2994;51.220;4.412;2023-08-24T17:05:25;5.17;;;3.33;;
5937;SDS011;2994;51.220;4.412;2023-08-24T17:08:09;5.37;;;3.57;;
5937;SDS011;2994;51.220;4.412;2023-08-24T17:10:35;4.97;;;3.30;;
5937;SDS011;2994;51.220;4.412;2023-08-24T17:13:04;3.23;;;2.93;;
5937;SDS011;2994;51.220;4.412;2023-08-24T17:15:30;3.30;;;2.70;;
5937;SDS011;2994;51.220;4.412;2023-08-24T17:17:56;4.13;;;3.10;;
5937;SDS011;2994;51.220;4.412;2023-08-24T17:20:24;3.63;;;2.67;;
5937;SDS011;2994;51.220;4.412;2023-08-24T17:22:50;4.10;;;3.67;;
5937;SDS011;2994;51.220;4.412;2023-08-24T17:25:18;4.47;;;2.93;;
5937;SDS011;2994;51.220;4.412;2023-08-24T17:27:44;5.90;;;3.77;;
5937;SDS011;2994;51.220;4.412;2023-08-24T17:30:10;3.23;;;2.93;;
5937;SDS011;2994;51.220;4.412;2023-08-24T17:32:36;5.10;;;3.60;;
5937;SDS011;2994;51.220;4.412;2023-08-24T17:35:02;4.30;;;3.40;;
5937;SDS011;2994;51.220;4.412;2023-08-24T17:37:27;5.03;;;3.73;;
5937;SDS011;2994;51.220;4.412;2023-08-24T17:39:53;4.97;;;3.27;;
5937;SDS011;2994;51.220;4.412;2023-08-24T17:42:18;4.73;;;3.40;;
5937;SDS011;2994;51.220;4.412;2023-08-24T17:44:44;6.57;;;4.70;;
5937;SDS011;2994;51.220;4.412;2023-08-24T17:47:09;5.60;;;3.70;;
5937;SDS011;2994;51.220;4.412;2023-08-24T17:49:35;5.77;;;3.30;;
5937;SDS011;2994;51.220;4.412;2023-08-24T17:52:00;4.13;;;3.73;;
5937;SDS011;2994;51.220;4.412;2023-08-24T17:54:26;3.23;;;2.90;;
5937;SDS011;2994;51.220;4.412;2023-08-24T17:56:52;5.33;;;4.10;;
5937;SDS011;2994;51.220;4.412;2023-08-24T17:59:18;4.77;;;4.20;;
5937;SDS011;2994;51.220;4.412;2023-08-24T18:01:44;4.30;;;3.77;;